sensor_id;sensor_type;location;lat;lon;timestamp;temperature;humidity
3866;DHT22;1948;53.250;10.412;2022-08-19T00:01:58;21.70;99.90
3866;DHT22;1948;53.250;10.412;2022-08-19T00:04:32;21.60;99.90
3866;DHT22;1948;53.250;10.412;2022-08-19T00:07:04;21.60;99.90
3866;DHT22;1948;53.250;10.412;2022-08-19T00:09:32;21.50;99.90
3866;DHT22;1948;53.250;10.412;2022-08-19T00:11:59;21.50;99.90
3866;DHT22;1948;53.250;10.412;2022-08-19T00:14:28;21.50;99.90
3866;DHT22;1948;53.250;10.412;2022-08-19T00:16:58;21.40;99.90
3866;DHT22;1948;53.250;10.412;2022-08-19T00:19:26;21.40;99.90
3866;DHT22;1948;53.250;10.412;2022-08-19T00:21:55;21.40;99.90
3866;DHT22;1948;53.250;10.412;2022-08-19T00:24:25;21.40;99.90
3866;DHT22;1948;53.250;10.412;2022-08-19T00:26:54;21.40;99.90
3866;DHT22;1948;53.250;10.412;2022-08-19T00:29:43;21.40;99.90
3866;DHT22;1948;53.250;10.412;2022-08-19T00:32:11;21.40;99.90
3866;DHT22;1948;53.250;10.412;2022-08-19T00:34:39;21.40;99.90
3866;DHT22;1948;53.250;10.412;2022-08-19T00:37:06;21.30;99.90
3866;DHT22;1948;53.250;10.412;2022-08-19T00:39:38;21.30;99.90
3866;DHT22;1948;53.250;10.412;2022-08-19T00:42:08;21.30;99.90
3866;DHT22;1948;53.250;10.412;2022-08-19T00:44:37;21.40;99.90
3866;DHT22;1948;53.250;10.412;2022-08-19T00:47:04;21.40;99.90
3866;DHT22;1948;53.250;10.412;2022-08-19T00:49:52;21.30;99.90
3866;DHT22;1948;53.250;10.412;2022-08-19T00:52:26;21.30;99.90
3866;DHT22;1948;53.250;10.412;2022-08-19T00:54:57;21.30;99.90
3866;DHT22;1948;53.250;10.412;2022-08-19T00:57:32;21.30;99.90
3866;DHT22;1948;53.250;10.412;2022-08-19T01:00:08;21.20;99.90
3866;DHT22;1948;53.250;10.412;2022-08-19T01:02:38;21.20;99.90
3866;DHT22;1948;53.250;10.412;2022-08-19T01:05:10;21.20;99.90
3866;DHT22;1948;53.250;10.412;2022-08-19T01:07:39;21.20;99.90
3866;DHT22;1948;53.250;10.412;2022-08-19T01:10:13;21.20;99.90
3866;DHT22;1948;53.250;10.412;2022-08-19T01:12:47;21.20;99.90
3866;DHT22;1948;53.250;10.412;2022-08-19T01:15:21;21.20;99.90
3866;DHT22;1948;53.250;10.412;2022-08-19T01:17:52;21.20;99.90
3866;DHT22;1948;53.250;10.412;2022-08-19T01:20:22;21.30;99.90
3866;DHT22;1948;53.250;10.412;2022-08-19T01:22:56;21.10;99.90
3866;DHT22;1948;53.250;10.412;2022-08-19T01:25:29;21.10;99.90
3866;DHT22;1948;53.250;10.412;2022-08-19T01:28:04;21.10;99.90
3866;DHT22;1948;53.250;10.412;2022-08-19T01:30:39;21.10;99.90
3866;DHT22;1948;53.250;10.412;2022-08-19T01:33:16;21.10;99.90
3866;DHT22;1948;53.250;10.412;2022-08-19T01:35:43;21.10;99.90
3866;DHT22;1948;53.250;10.412;2022-08-19T01:38:21;21.00;99.90
3866;DHT22;1948;53.250;10.412;2022-08-19T01:40:51;21.10;99.90
3866;DHT22;1948;53.250;10.412;2022-08-19T01:43:20;21.10;99.90
3866;DHT22;1948;53.250;10.412;2022-08-19T01:45:47;21.10;99.90
3866;DHT22;1948;53.250;10.412;2022-08-19T01:48:17;21.10;99.90
3866;DHT22;1948;53.250;10.412;2022-08-19T01:50:46;21.00;99.90
3866;DHT22;1948;53.250;10.412;2022-08-19T01:53:18;21.10;99.90
3866;DHT22;1948;53.250;10.412;2022-08-19T01:55:46;21.00;99.90
3866;DHT22;1948;53.250;10.412;2022-08-19T01:58:21;21.10;99.90
3866;DHT22;1948;53.250;10.412;2022-08-19T02:00:50;21.00;99.90
3866;DHT22;1948;53.250;10.412;2022-08-19T02:03:19;21.00;99.90
3866;DHT22;1948;53.250;10.412;2022-08-19T02:05:55;21.00;99.90
3866;DHT22;1948;53.250;10.412;2022-08-19T02:08:23;20.90;99.90
3866;DHT22;1948;53.250;10.412;2022-08-19T02:10:52;20.90;99.90
3866;DHT22;1948;53.250;10.412;2022-08-19T02:13:19;20.80;99.90
3866;DHT22;1948;53.250;10.412;2022-08-19T02:15:52;20.90;99.90
3866;DHT22;1948;53.250;10.412;2022-08-19T02:18:19;20.80;99.90
3866;DHT22;1948;53.250;10.412;2022-08-19T02:20:53;20.80;99.90
3866;DHT22;1948;53.250;10.412;2022-08-19T02:23:20;20.70;99.90
3866;DHT22;1948;53.250;10.412;2022-08-19T02:25:48;20.70;99.90
3866;DHT22;1948;53.250;10.412;2022-08-19T02:28:15;20.60;99.90
3866;DHT22;1948;53.250;10.412;2022-08-19T02:30:50;20.60;99.90
3866;DHT22;1948;53.250;10.412;2022-08-19T02:33:19;20.60;99.90
3866;DHT22;1948;53.250;10.412;2022-08-19T02:35:48;20.60;99.90
3866;DHT22;1948;53.250;10.412;2022-08-19T02:38:16;20.60;99.90
3866;DHT22;1948;53.250;10.412;2022-08-19T02:40:57;20.60;99.90
3866;DHT22;1948;53.250;10.412;2022-08-19T02:43:28;20.60;99.90
3866;DHT22;1948;53.250;10.412;2022-08-19T02:46:02;20.60;99.90
3866;DHT22;1948;53.250;10.412;2022-08-19T02:48:38;20.60;99.90
3866;DHT22;1948;53.250;10.412;2022-08-19T02:51:07;20.60;99.90
3866;DHT22;1948;53.250;10.412;2022-08-19T02:53:36;20.60;99.90
3866;DHT22;1948;53.250;10.412;2022-08-19T02:56:07;20.60;99.90
3866;DHT22;1948;53.250;10.412;2022-08-19T02:58:36;20.60;99.90
3866;DHT22;1948;53.250;10.412;2022-08-19T03:01:03;20.60;99.90
3866;DHT22;1948;53.250;10.412;2022-08-19T03:03:31;20.50;99.90
3866;DHT22;1948;53.250;10.412;2022-08-19T03:06:06;20.40;99.90
3866;DHT22;1948;53.250;10.412;2022-08-19T03:08:37;20.30;99.90
3866;DHT22;1948;53.250;10.412;2022-08-19T03:11:04;20.30;99.90
3866;DHT22;1948;53.250;10.412;2022-08-19T03:13:34;20.40;99.90
3866;DHT22;1948;53.250;10.412;2022-08-19T03:16:05;20.40;99.90
3866;DHT22;1948;53.250;10.412;2022-08-19T03:18:32;20.50;99.90
3866;DHT22;1948;53.250;10.412;2022-08-19T03:21:00;20.40;99.90
3866;DHT22;1948;53.250;10.412;2022-08-19T03:23:27;20.40;99.90
3866;DHT22;1948;53.250;10.412;2022-08-19T03:25:54;20.40;99.90
3866;DHT22;1948;53.250;10.412;2022-08-19T03:28:43;20.50;99.90
3866;DHT22;1948;53.250;10.412;2022-08-19T03:31:19;20.50;99.90
3866;DHT22;1948;53.250;10.412;2022-08-19T03:34:18;20.60;99.90
3866;DHT22;1948;53.250;10.412;2022-08-19T03:36:54;20.60;99.90
3866;DHT22;1948;53.250;10.412;2022-08-19T03:39:25;20.60;99.90
3866;DHT22;1948;53.250;10.412;2022-08-19T03:41:54;20.70;99.90
3866;DHT22;1948;53.250;10.412;2022-08-19T03:44:43;20.70;99.90
3866;DHT22;1948;53.250;10.412;2022-08-19T03:47:13;20.70;99.90
3866;DHT22;1948;53.250;10.412;2022-08-19T03:49:43;20.70;99.90
3866;DHT22;1948;53.250;10.412;2022-08-19T03:52:13;20.80;99.90
3866;DHT22;1948;53.250;10.412;2022-08-19T03:54:40;20.80;99.90
3866;DHT22;1948;53.250;10.412;2022-08-19T03:57:08;20.80;99.90
3866;DHT22;1948;53.250;10.412;2022-08-19T03:59:36;20.80;99.90
3866;DHT22;1948;53.250;10.412;2022-08-19T04:02:10;20.90;99.90
3866;DHT22;1948;53.250;10.412;2022-08-19T04:04:42;20.90;99.90
3866;DHT22;1948;53.250;10.412;2022-08-19T04:07:13;20.90;99.90
3866;DHT22;1948;53.250;10.412;2022-08-19T04:09:44;20.90;99.90
3866;DHT22;1948;53.250;10.412;2022-08-19T04:12:11;20.90;99.90
3866;DHT22;1948;53.250;10.412;2022-08-19T04:14:41;20.90;99.90
3866;DHT22;1948;53.250;10.412;2022-08-19T04:17:08;20.80;99.90
3866;DHT22;1948;53.250;10.412;2022-08-19T04:19:36;20.80;99.90
3866;DHT22;1948;53.250;10.412;2022-08-19T04:22:04;20.80;99.90
3866;DHT22;1948;53.250;10.412;2022-08-19T04:24:34;20.80;99.90
3866;DHT22;1948;53.250;10.412;2022-08-19T04:27:05;20.80;99.90
3866;DHT22;1948;53.250;10.412;2022-08-19T04:29:33;20.80;99.90
3866;DHT22;1948;53.250;10.412;2022-08-19T04:32:00;20.80;99.90
3866;DHT22;1948;53.250;10.412;2022-08-19T04:34:37;20.80;99.90
3866;DHT22;1948;53.250;10.412;2022-08-19T04:37:25;20.80;99.90
3866;DHT22;1948;53.250;10.412;2022-08-19T04:40:01;20.80;99.90
3866;DHT22;1948;53.250;10.412;2022-08-19T04:42:47;20.70;99.90
3866;DHT22;1948;53.250;10.412;2022-08-19T04:45:14;20.70;99.90
3866;DHT22;1948;53.250;10.412;2022-08-19T04:47:44;20.60;99.90
3866;DHT22;1948;53.250;10.412;2022-08-19T04:50:25;20.70;99.90
3866;DHT22;1948;53.250;10.412;2022-08-19T04:52:53;20.70;99.90
3866;DHT22;1948;53.250;10.412;2022-08-19T04:55:24;20.80;99.90
3866;DHT22;1948;53.250;10.412;2022-08-19T04:57:56;20.80;99.90
3866;DHT22;1948;53.250;10.412;2022-08-19T05:00:26;20.80;99.90
3866;DHT22;1948;53.250;10.412;2022-08-19T05:02:53;20.90;99.90
3866;DHT22;1948;53.250;10.412;2022-08-19T05:05:23;20.90;99.90
3866;DHT22;1948;53.250;10.412;2022-08-19T05:07:54;20.90;99.90
3866;DHT22;1948;53.250;10.412;2022-08-19T05:10:24;20.90;99.90
3866;DHT22;1948;53.250;10.412;2022-08-19T05:12:53;20.90;99.90
3866;DHT22;1948;53.250;10.412;2022-08-19T05:15:26;20.90;99.90
3866;DHT22;1948;53.250;10.412;2022-08-19T05:17:55;21.00;99.90
3866;DHT22;1948;53.250;10.412;2022-08-19T05:20:40;21.00;99.90
3866;DHT22;1948;53.250;10.412;2022-08-19T05:23:25;21.00;99.90
3866;DHT22;1948;53.250;10.412;2022-08-19T05:25:57;21.00;99.90
3866;DHT22;1948;53.250;10.412;2022-08-19T05:28:24;21.00;99.90
3866;DHT22;1948;53.250;10.412;2022-08-19T05:30:51;21.10;99.90
3866;DHT22;1948;53.250;10.412;2022-08-19T05:33:22;21.00;99.90
3866;DHT22;1948;53.250;10.412;2022-08-19T05:35:50;21.00;99.90
3866;DHT22;1948;53.250;10.412;2022-08-19T05:38:20;21.00;99.90
3866;DHT22;1948;53.250;10.412;2022-08-19T05:40:47;21.00;99.90
3866;DHT22;1948;53.250;10.412;2022-08-19T05:43:15;21.00;99.90
3866;DHT22;1948;53.250;10.412;2022-08-19T05:45:44;21.10;99.90
3866;DHT22;1948;53.250;10.412;2022-08-19T05:48:14;21.00;99.90
3866;DHT22;1948;53.250;10.412;2022-08-19T05:50:41;21.00;99.90
3866;DHT22;1948;53.250;10.412;2022-08-19T05:53:11;21.00;99.90
3866;DHT22;1948;53.250;10.412;2022-08-19T05:55:38;21.10;99.90
3866;DHT22;1948;53.250;10.412;2022-08-19T05:58:08;21.10;99.90
3866;DHT22;1948;53.250;10.412;2022-08-19T06:00:36;21.10;99.90
3866;DHT22;1948;53.250;10.412;2022-08-19T06:03:06;21.10;99.90
3866;DHT22;1948;53.250;10.412;2022-08-19T06:05:39;21.10;99.90
3866;DHT22;1948;53.250;10.412;2022-08-19T06:08:20;21.20;99.90
3866;DHT22;1948;53.250;10.412;2022-08-19T06:13:53;21.30;99.90
3866;DHT22;1948;53.250;10.412;2022-08-19T06:16:26;21.40;99.90
3866;DHT22;1948;53.250;10.412;2022-08-19T06:18:58;21.40;99.90
3866;DHT22;1948;53.250;10.412;2022-08-19T06:21:28;21.40;99.90
3866;DHT22;1948;53.250;10.412;2022-08-19T06:23:56;21.40;99.90
3866;DHT22;1948;53.250;10.412;2022-08-19T06:26:26;21.50;99.90
3866;DHT22;1948;53.250;10.412;2022-08-19T06:28:54;21.60;99.90
3866;DHT22;1948;53.250;10.412;2022-08-19T06:31:28;21.60;99.90
3866;DHT22;1948;53.250;10.412;2022-08-19T06:33:55;21.70;99.90
3866;DHT22;1948;53.250;10.412;2022-08-19T06:36:25;21.70;99.90
3866;DHT22;1948;53.250;10.412;2022-08-19T06:39:03;21.70;99.90
3866;DHT22;1948;53.250;10.412;2022-08-19T06:41:35;21.70;99.90
3866;DHT22;1948;53.250;10.412;2022-08-19T06:44:13;21.60;99.90
3866;DHT22;1948;53.250;10.412;2022-08-19T06:46:46;21.60;99.90
3866;DHT22;1948;53.250;10.412;2022-08-19T06:49:21;21.50;99.90
3866;DHT22;1948;53.250;10.412;2022-08-19T06:51:58;21.60;99.90
3866;DHT22;1948;53.250;10.412;2022-08-19T06:54:28;21.50;99.90
3866;DHT22;1948;53.250;10.412;2022-08-19T06:57:00;21.50;99.90
3866;DHT22;1948;53.250;10.412;2022-08-19T06:59:33;21.40;99.90
3866;DHT22;1948;53.250;10.412;2022-08-19T07:02:04;21.40;99.90
3866;DHT22;1948;53.250;10.412;2022-08-19T07:04:34;21.30;99.90
3866;DHT22;1948;53.250;10.412;2022-08-19T07:07:10;21.30;99.90
3866;DHT22;1948;53.250;10.412;2022-08-19T07:09:48;21.30;99.90
3866;DHT22;1948;53.250;10.412;2022-08-19T07:12:27;21.30;99.90
3866;DHT22;1948;53.250;10.412;2022-08-19T07:14:57;21.30;99.90
3866;DHT22;1948;53.250;10.412;2022-08-19T07:17:25;21.30;99.90
3866;DHT22;1948;53.250;10.412;2022-08-19T07:19:52;21.20;99.90
3866;DHT22;1948;53.250;10.412;2022-08-19T07:22:21;21.20;99.90
3866;DHT22;1948;53.250;10.412;2022-08-19T07:24:51;21.20;99.90
3866;DHT22;1948;53.250;10.412;2022-08-19T07:27:21;21.20;99.90
3866;DHT22;1948;53.250;10.412;2022-08-19T07:29:53;21.30;99.90
3866;DHT22;1948;53.250;10.412;2022-08-19T07:32:24;21.30;99.90
3866;DHT22;1948;53.250;10.412;2022-08-19T07:34:54;21.30;99.90
3866;DHT22;1948;53.250;10.412;2022-08-19T07:37:23;21.20;99.90
3866;DHT22;1948;53.250;10.412;2022-08-19T07:40:04;21.20;99.90
3866;DHT22;1948;53.250;10.412;2022-08-19T07:42:35;21.20;99.90
3866;DHT22;1948;53.250;10.412;2022-08-19T07:45:06;21.30;99.90
3866;DHT22;1948;53.250;10.412;2022-08-19T07:47:37;21.30;99.90
3866;DHT22;1948;53.250;10.412;2022-08-19T07:50:26;21.30;99.90
3866;DHT22;1948;53.250;10.412;2022-08-19T07:52:57;21.30;99.90
3866;DHT22;1948;53.250;10.412;2022-08-19T07:55:28;21.30;99.90
3866;DHT22;1948;53.250;10.412;2022-08-19T07:58:09;21.30;99.90
3866;DHT22;1948;53.250;10.412;2022-08-19T08:00:41;21.30;99.90
3866;DHT22;1948;53.250;10.412;2022-08-19T08:03:11;21.40;99.90
3866;DHT22;1948;53.250;10.412;2022-08-19T08:05:39;21.40;99.90
3866;DHT22;1948;53.250;10.412;2022-08-19T08:08:27;21.40;99.90
3866;DHT22;1948;53.250;10.412;2022-08-19T08:11:15;21.40;99.90
3866;DHT22;1948;53.250;10.412;2022-08-19T08:13:46;21.40;99.90
3866;DHT22;1948;53.250;10.412;2022-08-19T08:16:34;21.30;99.90
3866;DHT22;1948;53.250;10.412;2022-08-19T08:19:05;21.30;99.90
3866;DHT22;1948;53.250;10.412;2022-08-19T08:21:47;21.30;99.90
3866;DHT22;1948;53.250;10.412;2022-08-19T08:24:15;21.20;99.90
3866;DHT22;1948;53.250;10.412;2022-08-19T08:26:42;21.20;99.90
3866;DHT22;1948;53.250;10.412;2022-08-19T08:29:15;21.20;99.90
3866;DHT22;1948;53.250;10.412;2022-08-19T08:31:43;21.20;99.90
3866;DHT22;1948;53.250;10.412;2022-08-19T08:34:13;21.20;99.90
3866;DHT22;1948;53.250;10.412;2022-08-19T08:36:45;21.20;99.90
3866;DHT22;1948;53.250;10.412;2022-08-19T08:39:17;21.20;99.90
3866;DHT22;1948;53.250;10.412;2022-08-19T08:44:58;21.20;99.90
3866;DHT22;1948;53.250;10.412;2022-08-19T08:47:32;21.20;99.90
3866;DHT22;1948;53.250;10.412;2022-08-19T08:52:48;21.20;99.90
3866;DHT22;1948;53.250;10.412;2022-08-19T08:55:23;21.20;99.90
3866;DHT22;1948;53.250;10.412;2022-08-19T08:58:20;21.30;99.90
3866;DHT22;1948;53.250;10.412;2022-08-19T09:01:26;21.30;99.90
3866;DHT22;1948;53.250;10.412;2022-08-19T09:03:56;21.20;99.90
3866;DHT22;1948;53.250;10.412;2022-08-19T09:10:09;21.20;99.90
3866;DHT22;1948;53.250;10.412;2022-08-19T09:13:37;21.20;99.90
3866;DHT22;1948;53.250;10.412;2022-08-19T09:16:16;21.30;99.90
3866;DHT22;1948;53.250;10.412;2022-08-19T09:18:56;21.30;99.90
3866;DHT22;1948;53.250;10.412;2022-08-19T09:21:28;21.30;99.90
3866;DHT22;1948;53.250;10.412;2022-08-19T09:23:59;21.20;99.90
3866;DHT22;1948;53.250;10.412;2022-08-19T09:26:29;21.30;99.90
3866;DHT22;1948;53.250;10.412;2022-08-19T09:29:18;21.30;99.90
3866;DHT22;1948;53.250;10.412;2022-08-19T09:31:50;21.30;99.90
3866;DHT22;1948;53.250;10.412;2022-08-19T09:34:19;21.30;99.90
3866;DHT22;1948;53.250;10.412;2022-08-19T09:36:50;21.30;99.90
3866;DHT22;1948;53.250;10.412;2022-08-19T09:39:20;21.40;99.90
3866;DHT22;1948;53.250;10.412;2022-08-19T09:41:47;21.40;99.90
3866;DHT22;1948;53.250;10.412;2022-08-19T09:44:17;21.50;99.90
3866;DHT22;1948;53.250;10.412;2022-08-19T09:46:54;21.60;99.90
3866;DHT22;1948;53.250;10.412;2022-08-19T09:49:26;21.60;99.90
3866;DHT22;1948;53.250;10.412;2022-08-19T09:51:55;21.70;99.90
3866;DHT22;1948;53.250;10.412;2022-08-19T09:54:27;21.70;99.90
3866;DHT22;1948;53.250;10.412;2022-08-19T09:56:55;21.80;99.90
3866;DHT22;1948;53.250;10.412;2022-08-19T09:59:27;21.80;99.90
3866;DHT22;1948;53.250;10.412;2022-08-19T10:02:01;21.80;99.90
3866;DHT22;1948;53.250;10.412;2022-08-19T10:04:36;21.90;99.90
3866;DHT22;1948;53.250;10.412;2022-08-19T10:07:23;21.90;99.90
3866;DHT22;1948;53.250;10.412;2022-08-19T10:10:06;21.90;99.90
3866;DHT22;1948;53.250;10.412;2022-08-19T10:12:38;21.90;99.90
3866;DHT22;1948;53.250;10.412;2022-08-19T10:15:06;22.00;99.90
3866;DHT22;1948;53.250;10.412;2022-08-19T10:17:35;22.00;99.90
3866;DHT22;1948;53.250;10.412;2022-08-19T10:20:03;22.00;99.90
3866;DHT22;1948;53.250;10.412;2022-08-19T10:22:31;22.00;99.90
3866;DHT22;1948;53.250;10.412;2022-08-19T10:25:04;22.00;99.90
3866;DHT22;1948;53.250;10.412;2022-08-19T10:27:37;22.00;99.90
3866;DHT22;1948;53.250;10.412;2022-08-19T10:30:05;22.20;99.90
3866;DHT22;1948;53.250;10.412;2022-08-19T10:32:35;22.20;99.90
3866;DHT22;1948;53.250;10.412;2022-08-19T10:35:03;22.20;99.90
3866;DHT22;1948;53.250;10.412;2022-08-19T10:37:36;22.20;99.90
3866;DHT22;1948;53.250;10.412;2022-08-19T10:40:23;22.30;99.90
3866;DHT22;1948;53.250;10.412;2022-08-19T10:42:50;22.30;99.90
3866;DHT22;1948;53.250;10.412;2022-08-19T10:45:19;22.40;99.90
3866;DHT22;1948;53.250;10.412;2022-08-19T10:47:50;22.50;99.90
3866;DHT22;1948;53.250;10.412;2022-08-19T10:50:20;22.50;99.90
3866;DHT22;1948;53.250;10.412;2022-08-19T10:53:08;22.60;99.90
3866;DHT22;1948;53.250;10.412;2022-08-19T10:55:35;22.60;99.90
3866;DHT22;1948;53.250;10.412;2022-08-19T10:58:22;22.70;99.90
3866;DHT22;1948;53.250;10.412;2022-08-19T11:00:57;22.70;99.90
3866;DHT22;1948;53.250;10.412;2022-08-19T11:03:26;22.70;99.90
3866;DHT22;1948;53.250;10.412;2022-08-19T11:06:00;22.80;99.90
3866;DHT22;1948;53.250;10.412;2022-08-19T11:08:28;22.80;99.90
3866;DHT22;1948;53.250;10.412;2022-08-19T11:10:59;22.90;99.90
3866;DHT22;1948;53.250;10.412;2022-08-19T11:13:29;22.90;99.90
3866;DHT22;1948;53.250;10.412;2022-08-19T11:16:05;22.80;99.90
3866;DHT22;1948;53.250;10.412;2022-08-19T11:18:43;22.90;99.90
3866;DHT22;1948;53.250;10.412;2022-08-19T11:21:26;22.90;99.90
3866;DHT22;1948;53.250;10.412;2022-08-19T11:24:09;23.00;99.90
3866;DHT22;1948;53.250;10.412;2022-08-19T11:26:39;23.20;99.90
3866;DHT22;1948;53.250;10.412;2022-08-19T11:29:11;23.30;99.90
3866;DHT22;1948;53.250;10.412;2022-08-19T11:31:46;23.20;99.90
3866;DHT22;1948;53.250;10.412;2022-08-19T11:34:24;23.30;99.90
3866;DHT22;1948;53.250;10.412;2022-08-19T11:36:54;23.30;99.90
3866;DHT22;1948;53.250;10.412;2022-08-19T11:39:27;23.40;99.90
3866;DHT22;1948;53.250;10.412;2022-08-19T11:41:55;23.50;99.90
3866;DHT22;1948;53.250;10.412;2022-08-19T11:44:23;23.60;99.90
3866;DHT22;1948;53.250;10.412;2022-08-19T11:46:51;23.70;99.90
3866;DHT22;1948;53.250;10.412;2022-08-19T11:49:19;23.90;99.90
3866;DHT22;1948;53.250;10.412;2022-08-19T11:51:47;23.90;99.90
3866;DHT22;1948;53.250;10.412;2022-08-19T11:54:19;23.90;99.90
3866;DHT22;1948;53.250;10.412;2022-08-19T11:56:47;24.00;99.90
3866;DHT22;1948;53.250;10.412;2022-08-19T11:59:19;24.00;99.90
3866;DHT22;1948;53.250;10.412;2022-08-19T12:01:46;24.10;99.90
3866;DHT22;1948;53.250;10.412;2022-08-19T12:04:20;24.00;99.90
3866;DHT22;1948;53.250;10.412;2022-08-19T12:06:47;24.00;99.90
3866;DHT22;1948;53.250;10.412;2022-08-19T12:09:18;24.10;99.90
3866;DHT22;1948;53.250;10.412;2022-08-19T12:11:48;24.10;99.90
3866;DHT22;1948;53.250;10.412;2022-08-19T12:14:17;24.20;99.90
3866;DHT22;1948;53.250;10.412;2022-08-19T12:16:45;24.00;99.90
3866;DHT22;1948;53.250;10.412;2022-08-19T12:19:18;24.00;99.90
3866;DHT22;1948;53.250;10.412;2022-08-19T12:21:48;24.10;99.90
3866;DHT22;1948;53.250;10.412;2022-08-19T12:24:15;24.10;99.90
3866;DHT22;1948;53.250;10.412;2022-08-19T12:26:49;24.10;99.90
3866;DHT22;1948;53.250;10.412;2022-08-19T12:29:19;24.00;99.90
3866;DHT22;1948;53.250;10.412;2022-08-19T12:31:50;24.10;99.90
3866;DHT22;1948;53.250;10.412;2022-08-19T12:34:22;24.20;99.90
3866;DHT22;1948;53.250;10.412;2022-08-19T12:36:52;24.20;99.90
3866;DHT22;1948;53.250;10.412;2022-08-19T12:39:19;24.20;99.90
3866;DHT22;1948;53.250;10.412;2022-08-19T12:41:48;24.20;99.90
3866;DHT22;1948;53.250;10.412;2022-08-19T12:44:21;24.20;99.90
3866;DHT22;1948;53.250;10.412;2022-08-19T12:46:55;24.30;99.90
3866;DHT22;1948;53.250;10.412;2022-08-19T12:49:23;24.20;99.90
3866;DHT22;1948;53.250;10.412;2022-08-19T12:52:13;24.20;99.90
3866;DHT22;1948;53.250;10.412;2022-08-19T12:54:48;24.20;99.90
3866;DHT22;1948;53.250;10.412;2022-08-19T12:57:24;24.20;99.90
3866;DHT22;1948;53.250;10.412;2022-08-19T13:00:09;24.20;99.90
3866;DHT22;1948;53.250;10.412;2022-08-19T13:02:43;24.20;99.90
3866;DHT22;1948;53.250;10.412;2022-08-19T13:05:20;24.20;99.90
3866;DHT22;1948;53.250;10.412;2022-08-19T13:07:52;24.20;99.90
3866;DHT22;1948;53.250;10.412;2022-08-19T13:10:24;24.30;99.90
3866;DHT22;1948;53.250;10.412;2022-08-19T13:12:56;24.40;99.90
3866;DHT22;1948;53.250;10.412;2022-08-19T13:15:25;24.50;99.90
3866;DHT22;1948;53.250;10.412;2022-08-19T13:17:55;24.60;99.90
3866;DHT22;1948;53.250;10.412;2022-08-19T13:20:23;24.80;99.90
3866;DHT22;1948;53.250;10.412;2022-08-19T13:22:56;25.00;99.90
3866;DHT22;1948;53.250;10.412;2022-08-19T13:25:26;25.10;99.90
3866;DHT22;1948;53.250;10.412;2022-08-19T13:27:53;25.10;99.90
3866;DHT22;1948;53.250;10.412;2022-08-19T13:30:23;25.20;99.90
3866;DHT22;1948;53.250;10.412;2022-08-19T13:33:09;25.30;99.90
3866;DHT22;1948;53.250;10.412;2022-08-19T13:35:50;25.40;99.90
3866;DHT22;1948;53.250;10.412;2022-08-19T13:38:23;25.50;99.90
3866;DHT22;1948;53.250;10.412;2022-08-19T13:40:51;25.60;99.90
3866;DHT22;1948;53.250;10.412;2022-08-19T13:43:24;25.60;99.90
3866;DHT22;1948;53.250;10.412;2022-08-19T13:45:54;25.60;99.90
3866;DHT22;1948;53.250;10.412;2022-08-19T13:48:25;25.50;99.90
3866;DHT22;1948;53.250;10.412;2022-08-19T13:50:54;25.50;99.90
3866;DHT22;1948;53.250;10.412;2022-08-19T13:53:24;25.60;99.90
3866;DHT22;1948;53.250;10.412;2022-08-19T13:55:53;25.70;99.90
3866;DHT22;1948;53.250;10.412;2022-08-19T13:58:20;26.10;99.90
3866;DHT22;1948;53.250;10.412;2022-08-19T14:00:48;26.40;99.90
3866;DHT22;1948;53.250;10.412;2022-08-19T14:03:18;26.70;99.90
3866;DHT22;1948;53.250;10.412;2022-08-19T14:05:47;27.20;99.90
3866;DHT22;1948;53.250;10.412;2022-08-19T14:08:15;27.40;99.90
3866;DHT22;1948;53.250;10.412;2022-08-19T14:10:42;27.50;99.90
3866;DHT22;1948;53.250;10.412;2022-08-19T14:13:14;27.50;99.90
3866;DHT22;1948;53.250;10.412;2022-08-19T14:15:48;27.40;99.90
3866;DHT22;1948;53.250;10.412;2022-08-19T14:18:16;27.20;99.90
3866;DHT22;1948;53.250;10.412;2022-08-19T14:20:44;27.10;99.90
3866;DHT22;1948;53.250;10.412;2022-08-19T14:23:11;27.00;99.90
3866;DHT22;1948;53.250;10.412;2022-08-19T14:25:40;26.80;99.90
3866;DHT22;1948;53.250;10.412;2022-08-19T14:28:10;26.70;99.90
3866;DHT22;1948;53.250;10.412;2022-08-19T14:30:43;26.50;99.90
3866;DHT22;1948;53.250;10.412;2022-08-19T14:33:11;26.40;99.90
3866;DHT22;1948;53.250;10.412;2022-08-19T14:35:38;26.40;99.90
3866;DHT22;1948;53.250;10.412;2022-08-19T14:38:16;26.40;99.90
3866;DHT22;1948;53.250;10.412;2022-08-19T14:43:51;26.90;99.90
3866;DHT22;1948;53.250;10.412;2022-08-19T14:46:25;27.20;99.90
3866;DHT22;1948;53.250;10.412;2022-08-19T14:48:55;27.40;99.90
3866;DHT22;1948;53.250;10.412;2022-08-19T14:51:25;27.70;99.90
3866;DHT22;1948;53.250;10.412;2022-08-19T14:53:55;27.70;99.90
3866;DHT22;1948;53.250;10.412;2022-08-19T14:56:27;27.80;99.90
3866;DHT22;1948;53.250;10.412;2022-08-19T14:58:55;27.90;99.90
3866;DHT22;1948;53.250;10.412;2022-08-19T15:01:27;28.00;99.90
3866;DHT22;1948;53.250;10.412;2022-08-19T15:03:54;27.70;99.90
3866;DHT22;1948;53.250;10.412;2022-08-19T15:06:25;27.70;99.90
3866;DHT22;1948;53.250;10.412;2022-08-19T15:08:54;27.90;99.90
3866;DHT22;1948;53.250;10.412;2022-08-19T15:11:25;28.00;99.90
3866;DHT22;1948;53.250;10.412;2022-08-19T15:13:55;28.00;99.90
3866;DHT22;1948;53.250;10.412;2022-08-19T15:16:23;28.20;99.90
3866;DHT22;1948;53.250;10.412;2022-08-19T15:18:56;28.30;99.90
3866;DHT22;1948;53.250;10.412;2022-08-19T15:21:26;28.20;99.90
3866;DHT22;1948;53.250;10.412;2022-08-19T15:23:56;28.10;99.90
3866;DHT22;1948;53.250;10.412;2022-08-19T15:26:27;27.90;99.90
3866;DHT22;1948;53.250;10.412;2022-08-19T15:29:01;27.80;99.90
3866;DHT22;1948;53.250;10.412;2022-08-19T15:31:30;27.70;99.90
3866;DHT22;1948;53.250;10.412;2022-08-19T15:34:04;27.40;99.90
3866;DHT22;1948;53.250;10.412;2022-08-19T15:36:32;27.40;99.90
3866;DHT22;1948;53.250;10.412;2022-08-19T15:39:06;27.40;99.90
3866;DHT22;1948;53.250;10.412;2022-08-19T15:41:36;27.50;99.90
3866;DHT22;1948;53.250;10.412;2022-08-19T15:44:13;27.50;99.90
3866;DHT22;1948;53.250;10.412;2022-08-19T15:46:45;27.50;99.90
3866;DHT22;1948;53.250;10.412;2022-08-19T15:49:16;27.60;99.90
3866;DHT22;1948;53.250;10.412;2022-08-19T15:51:45;27.70;99.90
3866;DHT22;1948;53.250;10.412;2022-08-19T15:54:17;27.80;99.90
3866;DHT22;1948;53.250;10.412;2022-08-19T15:56:49;27.70;99.90
3866;DHT22;1948;53.250;10.412;2022-08-19T15:59:36;27.70;99.90
3866;DHT22;1948;53.250;10.412;2022-08-19T16:02:27;27.60;99.90
3866;DHT22;1948;53.250;10.412;2022-08-19T16:05:17;27.50;99.90
3866;DHT22;1948;53.250;10.412;2022-08-19T16:08:05;27.50;99.90
3866;DHT22;1948;53.250;10.412;2022-08-19T16:10:36;27.30;99.90
3866;DHT22;1948;53.250;10.412;2022-08-19T16:13:04;27.20;99.90
3866;DHT22;1948;53.250;10.412;2022-08-19T16:15:31;27.10;99.90
3866;DHT22;1948;53.250;10.412;2022-08-19T16:18:00;27.00;99.90
3866;DHT22;1948;53.250;10.412;2022-08-19T16:20:28;27.10;99.90
3866;DHT22;1948;53.250;10.412;2022-08-19T16:22:57;27.10;99.90
3866;DHT22;1948;53.250;10.412;2022-08-19T16:25:25;27.10;99.90
3866;DHT22;1948;53.250;10.412;2022-08-19T16:27:56;27.00;99.90
3866;DHT22;1948;53.250;10.412;2022-08-19T16:30:37;26.90;99.90
3866;DHT22;1948;53.250;10.412;2022-08-19T16:33:08;26.80;99.90